Time;durP1;ratioP1;P1;durP2;ratioP2;P2;SDS_P1;SDS_P2;PMS_P1;PMS_P2;Temp;Humidity;BMP_temperature;BMP_pressure;BME280_temperature;BME280_humidity;BME280_pressure;Samples;Min_cycle;Max_cycle;Signal;HPM_P1;HPM_P2
2021/09/03 00:01:49;;;;;;;9.93;4.45;;;12.70;99.90;;;;;;5034310;28;20029;-77
2021/09/03 00:04:15;;;;;;;11.50;4.18;;;12.70;99.90;;;;;;5005972;28;20502;-75
2021/09/03 00:06:40;;;;;;;9.95;3.63;;;12.70;99.90;;;;;;5015114;28;20471;-75
2021/09/03 00:09:06;;;;;;;10.32;4.05;;;12.70;99.90;;;;;;5014762;28;20026;-75
2021/09/03 00:11:31;;;;;;;10.98;3.90;;;12.60;99.90;;;;;;4997098;28;20030;-75
2021/09/03 00:13:57;;;;;;;8.45;3.40;;;12.60;99.90;;;;;;4997369;28;20403;-75
2021/09/03 00:16:24;;;;;;;14.75;3.95;;;12.60;99.90;;;;;;5033743;28;20026;-74
2021/09/03 00:18:49;;;;;;;15.40;5.38;;;12.50;99.90;;;;;;5034386;28;20064;-76
2021/09/03 00:21:15;;;;;;;12.43;4.18;;;12.50;99.90;;;;;;5034122;28;20029;-77
2021/09/03 00:23:40;;;;;;;13.23;4.43;;;12.50;99.90;;;;;;5033639;28;20097;-75
2021/09/03 00:26:06;;;;;;;15.40;4.53;;;12.50;99.90;;;;;;5033998;28;20037;-76
2021/09/03 00:28:31;;;;;;;13.70;3.80;;;12.40;99.90;;;;;;5016475;28;20060;-76
2021/09/03 00:30:57;;;;;;;12.18;4.20;;;12.50;99.90;;;;;;5034115;28;20029;-77
2021/09/03 00:33:23;;;;;;;14.07;3.85;;;12.40;99.90;;;;;;5034305;28;20025;-77
2021/09/03 00:35:48;;;;;;;13.38;4.47;;;12.40;99.90;;;;;;5016007;28;20120;-77
2021/09/03 00:38:14;;;;;;;9.98;4.07;;;12.40;99.90;;;;;;5015631;28;20427;-76
2021/09/03 00:40:39;;;;;;;16.50;4.63;;;12.40;99.90;;;;;;5016318;28;20467;-74
2021/09/03 00:43:05;;;;;;;12.63;4.20;;;12.40;99.90;;;;;;5016317;28;20386;-76
2021/09/03 00:45:30;;;;;;;17.02;4.13;;;12.40;99.90;;;;;;5015623;28;20025;-76
2021/09/03 00:47:56;;;;;;;11.50;3.75;;;12.30;99.90;;;;;;5033846;28;20099;-75
2021/09/03 00:50:22;;;;;;;10.30;4.07;;;12.30;99.90;;;;;;5032489;28;20022;-74
2021/09/03 00:52:47;;;;;;;12.27;3.92;;;12.30;99.90;;;;;;5033599;28;20029;-77
2021/09/03 00:55:13;;;;;;;12.18;4.40;;;12.30;99.90;;;;;;5032197;28;20113;-74
2021/09/03 00:57:39;;;;;;;10.55;4.22;;;12.30;99.90;;;;;;5033643;28;20025;-77
2021/09/03 01:00:06;;;;;;;17.38;5.50;;;12.30;99.90;;;;;;5026197;28;20017;-75
2021/09/03 01:02:31;;;;;;;13.73;4.38;;;12.30;99.90;;;;;;5032423;28;20026;-76
2021/09/03 01:04:57;;;;;;;15.38;4.78;;;12.30;99.90;;;;;;5015110;28;20108;-76
2021/09/03 01:07:23;;;;;;;10.55;4.90;;;12.30;99.90;;;;;;5016002;28;20029;-75
2021/09/03 01:09:50;;;;;;;11.45;4.53;;;12.30;99.90;;;;;;4998861;28;20022;-77
2021/09/03 01:12:17;;;;;;;10.63;4.07;;;12.20;99.90;;;;;;5004821;28;20025;-75
2021/09/03 01:14:43;;;;;;;12.63;4.07;;;12.20;99.90;;;;;;5015298;28;20032;-76
2021/09/03 01:17:08;;;;;;;18.15;6.10;;;12.20;99.90;;;;;;5033233;28;20025;-77
2021/09/03 01:19:34;;;;;;;13.63;4.53;;;12.20;99.90;;;;;;5032902;28;20026;-76
2021/09/03 01:22:00;;;;;;;13.13;4.22;;;12.20;99.90;;;;;;5033436;28;20033;-75
2021/09/03 01:24:26;;;;;;;12.82;4.32;;;12.30;99.90;;;;;;5033301;28;20029;-76
2021/09/03 01:26:51;;;;;;;13.68;4.78;;;12.30;99.90;;;;;;5028877;28;20022;-76
2021/09/03 01:29:17;;;;;;;14.40;4.38;;;12.30;99.90;;;;;;5017052;28;20490;-76
2021/09/03 01:31:42;;;;;;;11.55;4.55;;;12.30;99.90;;;;;;5033382;28;20025;-76
2021/09/03 01:34:08;;;;;;;14.63;5.05;;;12.30;99.90;;;;;;5033247;28;20405;-76
2021/09/03 01:36:34;;;;;;;15.02;4.80;;;12.30;99.90;;;;;;5030398;28;20041;-76
2021/09/03 01:39:01;;;;;;;19.52;5.28;;;12.30;99.90;;;;;;5013549;28;20026;-76
2021/09/03 01:41:26;;;;;;;15.40;5.72;;;12.30;99.90;;;;;;5013357;28;20406;-74
2021/09/03 01:43:52;;;;;;;13.68;4.88;;;12.30;99.90;;;;;;4998408;28;20104;-76
2021/09/03 01:46:18;;;;;;;12.48;4.47;;;12.20;99.90;;;;;;5031354;28;20058;-74
2021/09/03 01:48:45;;;;;;;15.88;5.00;;;12.20;99.90;;;;;;5032607;28;20522;-75
2021/09/03 01:51:11;;;;;;;15.00;5.05;;;12.20;99.90;;;;;;5015349;28;20028;-75
2021/09/03 01:53:36;;;;;;;13.13;4.45;;;12.20;99.90;;;;;;5032657;28;20026;-75
2021/09/03 01:56:03;;;;;;;13.38;4.72;;;12.20;99.90;;;;;;5021491;28;20030;-75
2021/09/03 01:58:29;;;;;;;14.88;5.30;;;12.20;99.90;;;;;;5013200;28;20538;-75
2021/09/03 02:00:54;;;;;;;17.67;5.88;;;12.20;99.90;;;;;;5013632;28;20022;-77
2021/09/03 02:03:20;;;;;;;15.15;4.75;;;12.20;99.90;;;;;;5013268;28;20108;-75
2021/09/03 02:05:45;;;;;;;19.00;5.80;;;12.10;99.90;;;;;;5010532;28;20037;-76
2021/09/03 02:08:11;;;;;;;18.88;5.35;;;12.20;99.90;;;;;;5033167;28;20026;-74
2021/09/03 02:10:40;;;;;;;15.60;5.15;;;12.20;99.90;;;;;;5033029;28;20025;-76
2021/09/03 02:13:05;;;;;;;14.68;4.60;;;12.20;99.90;;;;;;5032858;28;20506;-76
2021/09/03 02:15:31;;;;;;;16.70;5.88;;;12.20;99.90;;;;;;5031506;28;20049;-75
2021/09/03 02:17:56;;;;;;;15.40;5.35;;;12.20;99.90;;;;;;5032695;28;20072;-75
2021/09/03 02:20:22;;;;;;;22.20;5.90;;;12.10;99.90;;;;;;5014774;28;20025;-75
2021/09/03 02:22:47;;;;;;;16.75;6.80;;;12.20;99.90;;;;;;5032602;28;20034;-75
2021/09/03 02:25:13;;;;;;;15.07;5.63;;;12.20;99.90;;;;;;5034925;28;20017;-75
2021/09/03 02:27:39;;;;;;;16.92;6.05;;;12.20;99.90;;;;;;5036269;28;20029;-75
2021/09/03 02:30:06;;;;;;;18.67;5.53;;;12.20;99.90;;;;;;5036237;28;20450;-75
2021/09/03 02:32:31;;;;;;;15.88;5.72;;;12.20;99.90;;;;;;5035955;28;20030;-75
2021/09/03 02:34:57;;;;;;;16.40;6.57;;;12.20;99.90;;;;;;5035718;28;20100;-75
2021/09/03 02:37:23;;;;;;;17.23;6.63;;;12.20;99.90;;;;;;5036085;28;20021;-75
2021/09/03 02:39:48;;;;;;;22.13;7.07;;;12.20;99.90;;;;;;5035916;28;20021;-75
2021/09/03 02:42:14;;;;;;;20.98;7.35;;;12.20;99.90;;;;;;5036018;28;20029;-75
2021/09/03 02:44:39;;;;;;;17.90;6.03;;;12.20;99.90;;;;;;5035591;28;20022;-75
2021/09/03 02:47:05;;;;;;;23.52;6.30;;;12.20;99.90;;;;;;5018226;28;20037;-76
2021/09/03 02:49:31;;;;;;;18.55;6.30;;;12.20;99.90;;;;;;5036465;28;20025;-74
2021/09/03 02:51:56;;;;;;;15.50;6.28;;;12.20;99.90;;;;;;5018426;28;20013;-76
2021/09/03 02:54:22;;;;;;;18.17;6.13;;;12.20;99.90;;;;;;5035911;28;20040;-77
2021/09/03 02:56:47;;;;;;;16.83;5.50;;;12.20;99.90;;;;;;5035898;28;20384;-77
2021/09/03 02:59:13;;;;;;;18.05;6.20;;;12.10;99.90;;;;;;5017898;28;20120;-77
2021/09/03 03:01:38;;;;;;;18.95;6.82;;;12.10;99.90;;;;;;5018265;28;20498;-77
2021/09/03 03:04:04;;;;;;;19.17;8.00;;;12.20;99.90;;;;;;5035834;28;20125;-76
2021/09/03 03:06:29;;;;;;;15.25;5.40;;;12.20;99.90;;;;;;5018190;28;20060;-77
2021/09/03 03:08:55;;;;;;;21.85;7.10;;;12.20;99.90;;;;;;5018224;28;20061;-77
2021/09/03 03:11:21;;;;;;;20.60;6.32;;;12.10;99.90;;;;;;5017967;28;20030;-76
2021/09/03 03:13:48;;;;;;;15.07;5.78;;;12.10;99.90;;;;;;5017337;28;20017;-76
2021/09/03 03:16:15;;;;;;;15.75;6.43;;;12.10;99.90;;;;;;5017445;28;20502;-77
2021/09/03 03:18:41;;;;;;;16.65;5.38;;;12.10;99.90;;;;;;5017449;28;20064;-76
2021/09/03 03:21:07;;;;;;;18.77;6.55;;;12.10;99.90;;;;;;5017589;28;20079;-76
2021/09/03 03:23:32;;;;;;;18.88;6.97;;;12.00;99.90;;;;;;5017252;28;20013;-76
2021/09/03 03:25:58;;;;;;;17.13;5.63;;;12.10;99.90;;;;;;5035339;28;20486;-76
2021/09/03 03:28:24;;;;;;;18.65;6.75;;;12.00;99.90;;;;;;5012763;28;20026;-76
2021/09/03 03:30:49;;;;;;;20.13;7.43;;;12.10;99.90;;;;;;5015427;28;20041;-76
2021/09/03 03:33:15;;;;;;;19.80;6.70;;;12.10;99.90;;;;;;5009995;28;20505;-77
2021/09/03 03:35:43;;;;;;;25.27;6.82;;;12.00;99.90;;;;;;5034237;28;20038;-76
2021/09/03 03:38:10;;;;;;;21.23;6.75;;;12.10;99.90;;;;;;5003736;28;20491;-76
2021/09/03 03:40:35;;;;;;;13.95;5.85;;;12.10;99.90;;;;;;5015737;28;20467;-76
2021/09/03 03:43:01;;;;;;;16.63;6.53;;;12.10;99.90;;;;;;5015851;28;20105;-77
2021/09/03 03:45:26;;;;;;;18.98;7.30;;;12.10;99.90;;;;;;5017029;28;20426;-76
2021/09/03 03:47:52;;;;;;;20.55;7.15;;;12.10;99.90;;;;;;5017137;28;20040;-76
2021/09/03 03:50:18;;;;;;;17.02;5.93;;;12.10;99.90;;;;;;5017071;28;20026;-75
2021/09/03 03:52:43;;;;;;;16.05;6.07;;;12.30;99.90;;;;;;5035210;28;20356;-75
2021/09/03 03:55:09;;;;;;;22.50;7.53;;;12.10;99.90;;;;;;5034546;28;20062;-75
2021/09/03 03:57:35;;;;;;;17.75;6.47;;;12.20;99.90;;;;;;5035178;28;20494;-75
2021/09/03 04:00:01;;;;;;;22.10;8.77;;;12.20;99.90;;;;;;5034739;28;20022;-75
2021/09/03 04:02:27;;;;;;;22.98;8.73;;;12.10;99.90;;;;;;5016990;28;20022;-75
2021/09/03 04:04:53;;;;;;;16.83;6.47;;;12.20;99.90;;;;;;5034196;28;20034;-76
2021/09/03 04:07:18;;;;;;;24.08;7.32;;;12.10;99.90;;;;;;5034510;28;20360;-74
2021/09/03 04:09:44;;;;;;;25.65;8.30;;;12.10;99.90;;;;;;5035154;28;20433;-76
2021/09/03 04:12:10;;;;;;;18.23;7.63;;;12.10;99.90;;;;;;5034326;28;20076;-75
2021/09/03 04:14:36;;;;;;;21.40;7.28;;;12.20;99.90;;;;;;5035813;28;20032;-78
2021/09/03 04:17:02;;;;;;;23.63;7.05;;;12.10;99.90;;;;;;5016769;28;20052;-76
2021/09/03 04:19:28;;;;;;;19.17;7.88;;;12.10;99.90;;;;;;5017028;28;20017;-77
2021/09/03 04:21:54;;;;;;;18.63;7.07;;;12.10;99.90;;;;;;5017032;28;20017;-78
2021/09/03 04:24:19;;;;;;;20.50;7.57;;;12.10;99.90;;;;;;5016610;28;20108;-75
2021/09/03 04:26:45;;;;;;;21.48;8.20;;;12.10;99.90;;;;;;5034771;28;20068;-77
2021/09/03 04:29:10;;;;;;;20.80;7.38;;;12.10;99.90;;;;;;5034589;28;20033;-77
2021/09/03 04:31:36;;;;;;;19.25;7.20;;;12.00;99.90;;;;;;5034380;28;20056;-77
2021/09/03 04:34:01;;;;;;;17.83;7.20;;;12.00;99.90;;;;;;5034230;28;20037;-75
2021/09/03 04:36:27;;;;;;;20.35;6.88;;;12.00;99.90;;;;;;5025324;28;20033;-77
2021/09/03 04:38:52;;;;;;;18.25;6.97;;;12.00;99.90;;;;;;5019427;28;20033;-76
2021/09/03 04:41:18;;;;;;;19.48;7.65;;;11.90;99.90;;;;;;5016220;28;20029;-75
2021/09/03 04:43:43;;;;;;;23.45;8.85;;;11.90;99.90;;;;;;5015593;28;20024;-76
2021/09/03 04:46:09;;;;;;;17.42;6.72;;;11.90;99.90;;;;;;5033658;28;20053;-77
2021/09/03 04:48:35;;;;;;;21.00;7.40;;;11.90;99.90;;;;;;5033359;28;20064;-76
2021/09/03 04:51:00;;;;;;;25.92;8.45;;;11.90;99.90;;;;;;5016135;28;20057;-75
2021/09/03 04:53:26;;;;;;;21.25;7.20;;;11.90;99.90;;;;;;5016076;28;20026;-75
2021/09/03 04:55:53;;;;;;;17.98;6.80;;;11.90;99.90;;;;;;5036539;22;20041;-76
2021/09/03 04:58:18;;;;;;;21.77;7.28;;;11.90;99.90;;;;;;5035869;28;20025;-78
2021/09/03 05:00:44;;;;;;;22.70;8.13;;;11.90;99.90;;;;;;5036593;28;20013;-76
2021/09/03 05:03:09;;;;;;;19.33;7.90;;;11.90;99.90;;;;;;5035476;28;20052;-75
2021/09/03 05:05:35;;;;;;;27.05;8.40;;;12.00;99.90;;;;;;5053959;28;20063;-77
2021/09/03 05:08:01;;;;;;;20.92;7.70;;;11.90;99.90;;;;;;5054025;28;20434;-77
2021/09/03 05:10:26;;;;;;;20.95;8.13;;;11.90;99.90;;;;;;5053529;28;20029;-76
2021/09/03 05:12:52;;;;;;;22.10;8.25;;;11.90;99.90;;;;;;5053472;28;20108;-74
2021/09/03 05:15:18;;;;;;;17.13;7.13;;;11.90;99.90;;;;;;5054101;28;20076;-76
2021/09/03 05:17:49;;;;;;;18.40;6.97;;;11.90;99.90;;;;;;5053424;28;20040;-77
2021/09/03 05:20:16;;;;;;;20.63;7.32;;;12.00;99.90;;;;;;5035469;28;20025;-77
2021/09/03 05:22:45;;;;;;;24.98;7.65;;;11.90;99.90;;;;;;5053606;28;20025;-77
2021/09/03 05:25:13;;;;;;;18.67;7.72;;;12.00;99.90;;;;;;5044874;28;20029;-77
2021/09/03 05:27:40;;;;;;;24.17;7.85;;;12.00;99.90;;;;;;5015742;28;20498;-75
2021/09/03 05:30:07;;;;;;;25.08;7.50;;;12.00;99.90;;;;;;5015647;28;20022;-76
2021/09/03 05:32:33;;;;;;;20.30;7.28;;;12.10;99.90;;;;;;5045851;22;20041;-76
2021/09/03 05:34:58;;;;;;;22.75;8.60;;;12.10;99.90;;;;;;5032188;28;20026;-76
2021/09/03 05:37:24;;;;;;;22.20;7.43;;;12.10;99.90;;;;;;5013946;28;20503;-75
2021/09/03 05:39:49;;;;;;;18.33;6.68;;;12.20;99.90;;;;;;5013742;28;20022;-76
2021/09/03 05:42:15;;;;;;;20.35;7.00;;;12.20;99.90;;;;;;5025397;28;20026;-75
2021/09/03 05:44:41;;;;;;;21.40;7.45;;;12.20;99.90;;;;;;5026682;28;20045;-76
2021/09/03 05:47:06;;;;;;;25.63;8.07;;;12.30;99.90;;;;;;5022416;28;20026;-74
2021/09/03 05:49:32;;;;;;;23.73;8.23;;;12.40;99.90;;;;;;5025812;28;20022;-76
2021/09/03 05:51:57;;;;;;;19.05;7.07;;;12.40;99.90;;;;;;4996074;28;20037;-76
2021/09/03 05:54:23;;;;;;;26.83;8.65;;;12.50;99.90;;;;;;4995665;28;20018;-76
2021/09/03 05:56:48;;;;;;;19.83;7.65;;;12.60;99.90;;;;;;5013030;28;20037;-74
2021/09/03 05:59:14;;;;;;;25.13;7.70;;;12.70;99.90;;;;;;5014716;28;20034;-76
2021/09/03 06:01:39;;;;;;;23.80;7.95;;;12.70;99.90;;;;;;5017852;28;20076;-76
2021/09/03 06:04:05;;;;;;;22.27;7.78;;;12.80;99.90;;;;;;5017139;28;20033;-77
2021/09/03 06:06:31;;;;;;;23.67;7.82;;;12.90;99.90;;;;;;5017785;28;20022;-75
2021/09/03 06:08:57;;;;;;;21.98;7.75;;;12.90;99.90;;;;;;5017316;28;20483;-77
2021/09/03 06:11:26;;;;;;;21.58;7.20;;;13.00;99.90;;;;;;5018008;28;20029;-78
2021/09/03 06:13:55;;;;;;;21.30;7.90;;;13.00;99.90;;;;;;5000605;28;20030;-77
2021/09/03 06:16:21;;;;;;;21.00;8.30;;;13.10;99.90;;;;;;5016942;28;20128;-75
2021/09/03 06:18:47;;;;;;;18.95;7.00;;;13.20;99.90;;;;;;4999504;28;20018;-77
2021/09/03 06:21:14;;;;;;;19.35;7.60;;;13.80;99.90;;;;;;5017432;28;20022;-78
2021/09/03 06:23:40;;;;;;;21.67;7.32;;;13.40;99.90;;;;;;5000008;28;20022;-76
2021/09/03 06:26:05;;;;;;;18.92;7.45;;;13.40;99.90;;;;;;4999209;28;20084;-75
2021/09/03 06:28:31;;;;;;;20.38;7.40;;;13.50;99.90;;;;;;5017010;28;20041;-74
2021/09/03 06:30:56;;;;;;;18.42;7.22;;;13.60;99.90;;;;;;5000128;28;20383;-78
2021/09/03 06:33:22;;;;;;;18.52;7.30;;;13.80;99.90;;;;;;5036800;28;20453;-74
2021/09/03 06:35:48;;;;;;;21.67;8.55;;;13.80;99.90;;;;;;5036427;28;20368;-74
2021/09/03 06:38:13;;;;;;;24.55;7.15;;;13.90;99.90;;;;;;5022620;28;20022;-76
2021/09/03 06:40:39;;;;;;;21.90;7.90;;;14.00;99.90;;;;;;5034190;22;20057;-75
2021/09/03 06:43:04;;;;;;;23.80;7.60;;;14.00;99.90;;;;;;5058282;28;20393;-74
2021/09/03 06:45:30;;;;;;;27.55;7.55;;;14.10;99.90;;;;;;5058046;28;20016;-75
2021/09/03 06:47:55;;;;;;;18.13;7.07;;;14.30;99.90;;;;;;5076075;28;20028;-76
2021/09/03 06:50:21;;;;;;;21.50;7.55;;;14.30;99.90;;;;;;5075923;28;20107;-75
2021/09/03 06:52:48;;;;;;;23.10;7.32;;;14.40;99.90;;;;;;5077219;28;20052;-76
2021/09/03 06:55:14;;;;;;;19.80;8.27;;;14.50;99.90;;;;;;5058171;28;20427;-77
2021/09/03 06:57:39;;;;;;;17.30;6.30;;;14.60;99.90;;;;;;5056888;28;20021;-77
2021/09/03 07:00:06;;;;;;;18.90;7.45;;;14.70;99.90;;;;;;5076130;28;20024;-75
2021/09/03 07:02:32;;;;;;;24.75;8.05;;;14.80;99.90;;;;;;5044256;28;20099;-75
2021/09/03 07:04:57;;;;;;;19.92;6.75;;;14.90;99.90;;;;;;5055805;28;20071;-75
2021/09/03 07:07:23;;;;;;;24.30;7.40;;;14.90;99.90;;;;;;5056614;28;20099;-76
2021/09/03 07:09:48;;;;;;;22.35;7.47;;;15.00;99.90;;;;;;5056037;28;20029;-76
2021/09/03 07:12:14;;;;;;;18.23;8.07;;;15.10;99.90;;;;;;5055273;28;20025;-77
2021/09/03 07:14:40;;;;;;;21.30;7.60;;;15.20;99.90;;;;;;5056741;28;20382;-77
2021/09/03 07:17:06;;;;;;;20.38;7.72;;;15.80;99.90;;;;;;5037664;28;20155;-75
2021/09/03 07:19:35;;;;;;;15.63;6.50;;;15.40;99.90;;;;;;5056450;28;20043;-75
2021/09/03 07:22:04;;;;;;;16.67;6.57;;;15.50;99.90;;;;;;5018280;28;20055;-75
2021/09/03 07:24:30;;;;;;;15.57;6.68;;;15.70;99.90;;;;;;5030521;28;20472;-77
2021/09/03 07:26:56;;;;;;;17.45;6.45;;;15.80;99.90;;;;;;5038283;28;20048;-75
2021/09/03 07:29:21;;;;;;;18.30;6.05;;;15.90;99.90;;;;;;5043981;28;20498;-75
2021/09/03 07:31:47;;;;;;;17.27;6.28;;;16.00;99.90;;;;;;5073819;28;20123;-78
2021/09/03 07:34:12;;;;;;;19.05;6.55;;;16.10;99.90;;;;;;5082160;22;20583;-76
2021/09/03 07:36:39;;;;;;;15.25;6.35;;;16.20;99.90;;;;;;5086895;22;20098;-75
2021/09/03 07:39:05;;;;;;;19.73;8.00;;;16.30;99.90;;;;;;5074847;28;20036;-75
2021/09/03 07:41:31;;;;;;;16.17;7.03;;;16.50;99.90;;;;;;5098502;22;20048;-78
2021/09/03 07:43:56;;;;;;;18.33;6.57;;;16.60;99.90;;;;;;5061807;28;20024;-75
2021/09/03 07:46:22;;;;;;;19.80;7.28;;;16.70;99.90;;;;;;5091091;28;21202;-77
2021/09/03 07:48:47;;;;;;;21.30;6.68;;;16.80;99.90;;;;;;5057080;28;20053;-76
2021/09/03 07:51:13;;;;;;;16.30;5.93;;;16.90;99.90;;;;;;5076920;28;20472;-77
2021/09/03 07:53:39;;;;;;;14.93;6.40;;;17.00;99.90;;;;;;5089057;28;20512;-77
2021/09/03 07:56:05;;;;;;;15.00;6.30;;;17.00;99.90;;;;;;5075698;28;20488;-75
2021/09/03 07:58:30;;;;;;;16.45;5.45;;;17.10;99.90;;;;;;5074742;28;20052;-75
2021/09/03 08:00:56;;;;;;;13.73;6.03;;;17.10;99.90;;;;;;5073524;28;20163;-78
2021/09/03 08:03:22;;;;;;;17.30;6.25;;;17.20;99.90;;;;;;5079700;28;20048;-76
2021/09/03 08:05:48;;;;;;;15.93;6.20;;;17.40;99.90;;;;;;5092254;22;20055;-77
2021/09/03 08:08:13;;;;;;;15.07;6.13;;;17.50;99.90;;;;;;5076113;28;20122;-75
2021/09/03 08:10:42;;;;;;;12.93;5.57;;;17.60;99.90;;;;;;5086073;22;20048;-75
2021/09/03 08:13:09;;;;;;;11.35;5.35;;;15.20;99.90;;;;;;5074359;28;20021;-75
2021/09/03 08:15:35;;;;;;;14.65;5.57;;;19.00;99.90;;;;;;5074201;28;20074;-75
2021/09/03 08:18:01;;;;;;;17.50;6.10;;;15.70;99.90;;;;;;5056391;28;20020;-78
2021/09/03 08:20:28;;;;;;;11.25;5.07;;;15.20;99.90;;;;;;5072917;28;20050;-77
2021/09/03 08:22:54;;;;;;;11.57;5.78;;;20.40;99.90;;;;;;5061182;28;20028;-78
2021/09/03 08:25:20;;;;;;;14.13;5.68;;;18.20;99.90;;;;;;5074724;28;20393;-78
2021/09/03 08:27:47;;;;;;;14.07;5.32;;;18.50;99.90;;;;;;5074797;28;20089;-77
2021/09/03 08:30:13;;;;;;;13.93;6.03;;;18.40;99.90;;;;;;5057074;28;20047;-77
2021/09/03 08:32:38;;;;;;;9.88;5.10;;;18.50;99.90;;;;;;5069336;28;20032;-78
2021/09/03 08:35:05;;;;;;;12.60;6.18;;;18.60;99.90;;;;;;5075160;28;20027;-80
2021/09/03 08:37:30;;;;;;;10.82;4.63;;;18.80;99.90;;;;;;5075347;28;20029;-77
2021/09/03 08:39:56;;;;;;;9.95;4.30;;;18.90;99.90;;;;;;5056958;28;20031;-77
2021/09/03 08:42:22;;;;;;;16.85;5.32;;;19.10;99.90;;;;;;5055133;28;20032;-78
2021/09/03 08:44:51;;;;;;;12.05;5.22;;;19.00;99.90;;;;;;5071856;28;20024;-77
2021/09/03 08:47:17;;;;;;;10.60;4.95;;;19.20;99.90;;;;;;5051850;28;20021;-79
2021/09/03 08:49:43;;;;;;;12.88;4.40;;;19.30;99.90;;;;;;5056721;28;20092;-79
2021/09/03 08:52:09;;;;;;;12.80;4.40;;;19.50;99.90;;;;;;5062233;28;20021;-79
2021/09/03 08:54:37;;;;;;;13.75;4.45;;;19.50;99.90;;;;;;5060580;28;20127;-79
2021/09/03 08:57:03;;;;;;;9.20;4.18;;;19.70;99.90;;;;;;5078405;28;20060;-79
2021/09/03 08:59:29;;;;;;;14.45;4.22;;;19.80;99.90;;;;;;5060328;28;20046;-79
2021/09/03 09:02:27;;;;;;;14.65;4.82;;;19.90;99.90;;;;;;5061886;28;20060;-79
2021/09/03 09:04:53;;;;;;;13.88;4.55;;;20.00;99.90;;;;;;5024562;28;20032;-79
2021/09/03 09:07:19;;;;;;;9.52;4.00;;;20.00;99.90;;;;;;5078235;28;20032;-79
2021/09/03 09:09:49;;;;;;;9.25;3.88;;;20.10;99.90;;;;;;5063329;28;20494;-78
2021/09/03 09:12:18;;;;;;;10.38;3.90;;;20.20;99.90;;;;;;5056348;28;20036;-79
2021/09/03 09:15:09;;;;;;;14.95;4.15;;;20.20;99.90;;;;;;5060706;28;20103;-79
2021/09/03 09:17:43;;;;;;;12.98;3.70;;;20.20;99.90;;;;;;5060740;28;20055;-79
2021/09/03 09:20:13;;;;;;;8.48;4.10;;;20.30;99.90;;;;;;5075998;28;20029;-77
2021/09/03 09:22:59;;;;;;;10.10;4.32;;;20.40;99.90;;;;;;5055697;28;20024;-75
2021/09/03 09:25:31;;;;;;;10.82;4.70;;;20.40;99.90;;;;;;5073080;28;20045;-76
2021/09/03 09:28:17;;;;;;;10.10;4.15;;;20.60;99.90;;;;;;5073519;28;20056;-76
2021/09/03 09:30:43;;;;;;;13.55;4.15;;;20.70;99.90;;;;;;5055212;28;20028;-75
2021/09/03 09:33:16;;;;;;;10.07;4.43;;;20.70;99.90;;;;;;5084993;22;20098;-77
2021/09/03 09:35:50;;;;;;;9.77;4.63;;;20.70;99.90;;;;;;5072201;28;20032;-77
2021/09/03 09:38:19;;;;;;;8.98;4.00;;;20.80;99.90;;;;;;5074579;28;20021;-76
2021/09/03 09:40:50;;;;;;;10.00;4.47;;;20.90;99.90;;;;;;5058620;28;20017;-76
2021/09/03 09:43:26;;;;;;;11.25;3.85;;;21.00;99.90;;;;;;5074338;28;20025;-75
2021/09/03 09:46:24;;;;;;;15.10;3.80;;;21.00;99.90;;;;;;5076337;28;20055;-76
2021/09/03 09:48:50;;;;;;;;;;;21.10;99.90;;;;;;5077136;28;20024;-76
2021/09/03 09:51:33;;;;;;;15.00;4.38;;;21.10;99.90;;;;;;5076867;28;19912;-76
2021/09/03 09:54:02;;;;;;;13.00;4.32;;;21.10;99.90;;;;;;5073506;28;20032;-76
2021/09/03 09:56:31;;;;;;;11.80;3.88;;;21.10;99.90;;;;;;5074206;28;20024;-77
2021/09/03 09:58:58;;;;;;;9.93;4.10;;;21.20;99.90;;;;;;5074403;28;20042;-78
2021/09/03 10:01:24;;;;;;;9.35;4.13;;;21.30;99.90;;;;;;5054937;28;20473;-77
2021/09/03 10:03:52;;;;;;;12.57;4.13;;;21.30;99.90;;;;;;5055497;28;20066;-77
2021/09/03 10:06:19;;;;;;;9.50;3.93;;;21.40;99.90;;;;;;5073843;28;20051;-79
2021/09/03 10:08:46;;;;;;;9.18;3.78;;;21.70;99.90;;;;;;5074229;28;20056;-76
2021/09/03 10:11:16;;;;;;;12.82;4.25;;;21.60;99.90;;;;;;5076651;28;20095;-75
2021/09/03 10:13:42;;;;;;;14.85;4.25;;;21.90;99.90;;;;;;5076026;28;20016;-76
2021/09/03 10:16:09;;;;;;;9.43;4.07;;;21.80;99.90;;;;;;5072443;28;20400;-77
2021/09/03 10:18:36;;;;;;;8.20;4.00;;;21.90;99.90;;;;;;5055612;28;20032;-75
2021/09/03 10:21:02;;;;;;;11.02;4.07;;;21.90;99.90;;;;;;5074626;28;20025;-76
2021/09/03 10:23:54;;;;;;;14.80;3.40;;;22.00;99.90;;;;;;5073067;28;20389;-77
2021/09/03 10:26:38;;;;;;;12.27;4.43;;;21.90;99.90;;;;;;5054915;28;20021;-76
2021/09/03 10:29:36;;;;;;;8.95;3.63;;;22.10;99.90;;;;;;5074468;28;20105;-78
2021/09/03 10:32:05;;;;;;;12.50;3.72;;;22.30;99.90;;;;;;5038994;28;20075;-78
2021/09/03 10:37:14;;;;;;;10.75;3.95;;;22.60;99.90;;;;;;5060221;28;20390;-78
2021/09/03 10:40:05;;;;;;;12.35;4.65;;;22.80;99.90;;;;;;5057419;28;20017;-78
2021/09/03 10:42:34;;;;;;;9.40;4.55;;;23.00;99.90;;;;;;5057883;28;20542;-78
2021/09/03 10:45:09;;;;;;;8.82;4.35;;;23.00;99.90;;;;;;5059755;28;20028;-78
2021/09/03 10:47:46;;;;;;;12.23;3.83;;;23.00;99.90;;;;;;5080962;28;20908;-78
2021/09/03 10:50:23;;;;;;;11.13;4.07;;;23.20;99.90;;;;;;5080066;28;20017;-76
2021/09/03 10:53:07;;;;;;;13.30;4.38;;;23.30;99.90;;;;;;5068681;22;20045;-80
2021/09/03 10:55:51;;;;;;;9.35;3.63;;;24.10;99.90;;;;;;5019004;28;20117;-78
2021/09/03 10:58:44;;;;;;;9.50;4.63;;;23.70;99.90;;;;;;5018682;28;20029;-76
2021/09/03 11:01:10;;;;;;;10.02;4.15;;;23.70;99.90;;;;;;5027780;28;20025;-80
2021/09/03 11:03:36;;;;;;;10.32;5.13;;;23.90;99.90;;;;;;5001462;28;20022;-76
2021/09/03 11:06:02;;;;;;;8.63;4.03;;;24.00;99.90;;;;;;5002137;28;20117;-78
2021/09/03 11:08:38;;;;;;;9.95;4.38;;;24.50;99.90;;;;;;5003188;28;20030;-77
2021/09/03 11:11:31;;;;;;;10.45;4.47;;;24.00;99.90;;;;;;5004507;28;20104;-78
2021/09/03 11:14:12;;;;;;;12.50;4.35;;;24.30;99.60;;;;;;5107577;22;20049;-79
2021/09/03 11:16:51;;;;;;;11.15;5.15;;;24.30;99.70;;;;;;5006884;28;20034;-76
2021/09/03 11:19:28;;;;;;;12.85;4.57;;;24.40;98.60;;;;;;4999621;28;20399;-75
2021/09/03 11:22:13;;;;;;;12.90;5.47;;;24.50;99.70;;;;;;5017002;28;20379;-76
2021/09/03 11:24:47;;;;;;;7.75;3.92;;;24.60;99.40;;;;;;5001808;28;20079;-76
2021/09/03 11:27:19;;;;;;;11.63;4.25;;;24.70;98.50;;;;;;5002165;28;20030;-76
2021/09/03 11:29:51;;;;;;;8.55;4.13;;;24.90;98.40;;;;;;5020629;28;20036;-77
2021/09/03 11:32:25;;;;;;;11.38;4.60;;;24.90;97.40;;;;;;5001797;28;20032;-76
2021/09/03 11:35:08;;;;;;;11.13;4.57;;;25.10;98.60;;;;;;5017676;28;20025;-77
2021/09/03 11:37:37;;;;;;;13.85;4.82;;;25.20;95.10;;;;;;5019164;28;20040;-78
2021/09/03 11:40:16;;;;;;;;;;;25.20;95.80;;;;;;5019034;28;20134;-78
2021/09/03 11:43:03;;;;;;;8.27;3.65;;;25.20;94.00;;;;;;5019997;28;19906;-78
2021/09/03 11:45:39;;;;;;;11.43;4.60;;;25.40;96.30;;;;;;5019091;28;20030;-78
2021/09/03 11:48:11;;;;;;;10.93;3.97;;;25.40;95.50;;;;;;5020132;28;20361;-78
2021/09/03 11:50:38;;;;;;;11.70;4.22;;;25.30;95.30;;;;;;5019090;28;20100;-78
2021/09/03 11:53:14;;;;;;;14.05;3.70;;;25.20;96.10;;;;;;5018772;28;20108;-78
2021/09/03 11:55:42;;;;;;;13.48;5.05;;;25.10;94.70;;;;;;5018569;28;20032;-78
2021/09/03 11:58:10;;;;;;;11.77;4.35;;;24.80;95.90;;;;;;5019903;28;20110;-77
2021/09/03 12:00:45;;;;;;;9.93;5.05;;;24.80;97.20;;;;;;5032055;28;20076;-76
2021/09/03 12:03:15;;;;;;;9.30;4.40;;;23.50;95.70;;;;;;5002390;28;20691;-78
2021/09/03 12:05:46;;;;;;;11.73;4.55;;;25.00;95.40;;;;;;5018351;28;20030;-76
2021/09/03 12:08:13;;;;;;;7.45;3.78;;;25.40;97.40;;;;;;4999302;28;20021;-76
2021/09/03 12:10:44;;;;;;;10.70;4.70;;;25.50;93.90;;;;;;5032398;23;20103;-75
2021/09/03 12:13:16;;;;;;;8.40;3.85;;;25.50;92.90;;;;;;5061973;22;20187;-75
2021/09/03 12:15:44;;;;;;;9.10;4.03;;;25.40;95.40;;;;;;5059714;28;20548;-75
2021/09/03 12:18:29;;;;;;;12.10;4.70;;;25.50;94.10;;;;;;5075916;28;20109;-75
2021/09/03 12:21:20;;;;;;;10.43;3.85;;;25.50;95.70;;;;;;5078196;28;20275;-75
2021/09/03 12:23:56;;;;;;;14.38;4.55;;;25.80;94.00;;;;;;5045969;28;20107;-75
2021/09/03 12:26:47;;;;;;;8.40;3.80;;;26.10;93.10;;;;;;5074391;28;20108;-76
2021/09/03 12:29:14;;;;;;;8.38;3.58;;;26.40;92.30;;;;;;5052592;28;20045;-76
2021/09/03 12:31:49;;;;;;;7.40;3.33;;;26.20;92.30;;;;;;5058723;28;20111;-75
2021/09/03 12:34:15;;;;;;;6.93;2.80;;;26.30;92.00;;;;;;5077137;28;20082;-78
2021/09/03 12:36:41;;;;;;;8.30;3.75;;;26.60;91.60;;;;;;5061381;28;20056;-78
2021/09/03 12:39:09;;;;;;;8.00;3.33;;;28.00;91.20;;;;;;5078114;28;20033;-77
2021/09/03 12:41:39;;;;;;;12.32;3.92;;;27.30;91.10;;;;;;5059528;28;20025;-75
2021/09/03 12:44:19;;;;;;;11.52;3.67;;;27.60;86.50;;;;;;5057494;28;20017;-75
2021/09/03 12:46:46;;;;;;;7.15;3.15;;;27.80;86.40;;;;;;5040277;28;20025;-76